sensor_id;sensor_type;location;lat;lon;timestamp;temperature;humidity
8226;DHT22;4154;48.810;9.012;2022-10-22T00:01:43;14.20;99.90
8226;DHT22;4154;48.810;9.012;2022-10-22T00:06:36;14.10;99.90
8226;DHT22;4154;48.810;9.012;2022-10-22T00:09:02;14.10;99.90
8226;DHT22;4154;48.810;9.012;2022-10-22T00:11:28;14.10;99.90
8226;DHT22;4154;48.810;9.012;2022-10-22T00:13:54;13.80;99.90
8226;DHT22;4154;48.810;9.012;2022-10-22T00:16:20;14.00;99.90
8226;DHT22;4154;48.810;9.012;2022-10-22T00:18:46;14.00;99.90
8226;DHT22;4154;48.810;9.012;2022-10-22T00:21:11;14.00;99.90
8226;DHT22;4154;48.810;9.012;2022-10-22T00:23:42;13.70;99.90
8226;DHT22;4154;48.810;9.012;2022-10-22T00:26:09;14.00;99.90
8226;DHT22;4154;48.810;9.012;2022-10-22T00:28:35;14.10;99.90
8226;DHT22;4154;48.810;9.012;2022-10-22T00:31:02;14.10;99.90
8226;DHT22;4154;48.810;9.012;2022-10-22T00:33:28;14.10;99.90
8226;DHT22;4154;48.810;9.012;2022-10-22T00:35:54;14.00;99.90
8226;DHT22;4154;48.810;9.012;2022-10-22T00:38:21;14.00;99.90
8226;DHT22;4154;48.810;9.012;2022-10-22T00:40:47;14.00;99.90
8226;DHT22;4154;48.810;9.012;2022-10-22T00:43:16;14.00;99.90
8226;DHT22;4154;48.810;9.012;2022-10-22T00:45:43;14.00;99.90
8226;DHT22;4154;48.810;9.012;2022-10-22T00:48:16;14.00;99.90
8226;DHT22;4154;48.810;9.012;2022-10-22T00:50:53;13.90;99.90
8226;DHT22;4154;48.810;9.012;2022-10-22T00:53:28;13.90;99.90
8226;DHT22;4154;48.810;9.012;2022-10-22T00:55:55;13.90;99.90
8226;DHT22;4154;48.810;9.012;2022-10-22T00:58:25;13.90;99.90
8226;DHT22;4154;48.810;9.012;2022-10-22T01:00:54;13.90;99.90
8226;DHT22;4154;48.810;9.012;2022-10-22T01:03:21;13.90;99.90
8226;DHT22;4154;48.810;9.012;2022-10-22T01:05:58;13.90;99.90
8226;DHT22;4154;48.810;9.012;2022-10-22T01:11:34;13.90;99.90
8226;DHT22;4154;48.810;9.012;2022-10-22T01:17:07;13.90;99.90
8226;DHT22;4154;48.810;9.012;2022-10-22T01:22:39;13.90;99.90
8226;DHT22;4154;48.810;9.012;2022-10-22T01:25:16;13.90;99.90
8226;DHT22;4154;48.810;9.012;2022-10-22T01:28:18;13.90;99.90
8226;DHT22;4154;48.810;9.012;2022-10-22T01:30:58;13.80;99.90
8226;DHT22;4154;48.810;9.012;2022-10-22T01:33:27;13.90;99.90
8226;DHT22;4154;48.810;9.012;2022-10-22T01:35:55;13.90;99.90
8226;DHT22;4154;48.810;9.012;2022-10-22T01:38:23;13.90;99.90
8226;DHT22;4154;48.810;9.012;2022-10-22T01:40:50;13.90;99.90
8226;DHT22;4154;48.810;9.012;2022-10-22T01:43:16;13.90;99.90
8226;DHT22;4154;48.810;9.012;2022-10-22T01:45:49;13.90;99.90
8226;DHT22;4154;48.810;9.012;2022-10-22T02:00:06;13.80;99.90
8226;DHT22;4154;48.810;9.012;2022-10-22T02:03:09;13.90;99.90
8226;DHT22;4154;48.810;9.012;2022-10-22T02:05:58;13.80;99.90
8226;DHT22;4154;48.810;9.012;2022-10-22T02:08:31;13.80;99.90
8226;DHT22;4154;48.810;9.012;2022-10-22T02:11:00;13.90;99.90
8226;DHT22;4154;48.810;9.012;2022-10-22T02:13:34;13.80;99.90
8226;DHT22;4154;48.810;9.012;2022-10-22T02:16:07;13.80;99.90
8226;DHT22;4154;48.810;9.012;2022-10-22T02:18:38;13.80;99.90
8226;DHT22;4154;48.810;9.012;2022-10-22T02:21:06;13.80;99.90
8226;DHT22;4154;48.810;9.012;2022-10-22T02:23:33;13.90;99.90
8226;DHT22;4154;48.810;9.012;2022-10-22T02:26:10;13.90;99.90
8226;DHT22;4154;48.810;9.012;2022-10-22T02:28:57;13.90;99.90
8226;DHT22;4154;48.810;9.012;2022-10-22T02:31:31;13.80;99.90
8226;DHT22;4154;48.810;9.012;2022-10-22T02:34:10;13.90;99.90
8226;DHT22;4154;48.810;9.012;2022-10-22T02:36:42;13.90;99.90
8226;DHT22;4154;48.810;9.012;2022-10-22T02:39:10;13.80;99.90
8226;DHT22;4154;48.810;9.012;2022-10-22T02:41:37;13.80;99.90
8226;DHT22;4154;48.810;9.012;2022-10-22T02:44:10;13.80;99.90
8226;DHT22;4154;48.810;9.012;2022-10-22T02:46:37;13.80;99.90
8226;DHT22;4154;48.810;9.012;2022-10-22T02:49:04;13.90;99.90
8226;DHT22;4154;48.810;9.012;2022-10-22T02:51:29;13.80;99.90
8226;DHT22;4154;48.810;9.012;2022-10-22T02:54:04;13.60;99.90
8226;DHT22;4154;48.810;9.012;2022-10-22T02:56:31;13.80;99.90
8226;DHT22;4154;48.810;9.012;2022-10-22T02:58:57;13.90;99.90
8226;DHT22;4154;48.810;9.012;2022-10-22T03:01:23;13.90;99.90
8226;DHT22;4154;48.810;9.012;2022-10-22T03:03:49;13.90;99.90
8226;DHT22;4154;48.810;9.012;2022-10-22T03:06:14;13.80;99.90
8226;DHT22;4154;48.810;9.012;2022-10-22T03:08:41;13.90;99.90
8226;DHT22;4154;48.810;9.012;2022-10-22T03:11:07;13.90;99.90
8226;DHT22;4154;48.810;9.012;2022-10-22T03:13:33;13.80;99.90
8226;DHT22;4154;48.810;9.012;2022-10-22T03:15:58;13.90;99.90
8226;DHT22;4154;48.810;9.012;2022-10-22T03:18:24;13.90;99.90
8226;DHT22;4154;48.810;9.012;2022-10-22T03:21:07;13.80;99.90
8226;DHT22;4154;48.810;9.012;2022-10-22T03:23:35;13.80;99.90
8226;DHT22;4154;48.810;9.012;2022-10-22T03:26:03;13.80;99.90
8226;DHT22;4154;48.810;9.012;2022-10-22T03:28:30;13.80;99.90
8226;DHT22;4154;48.810;9.012;2022-10-22T03:30:56;13.80;99.90
8226;DHT22;4154;48.810;9.012;2022-10-22T03:33:21;13.80;99.90
8226;DHT22;4154;48.810;9.012;2022-10-22T03:35:47;13.80;99.90
8226;DHT22;4154;48.810;9.012;2022-10-22T03:38:13;13.80;99.90
8226;DHT22;4154;48.810;9.012;2022-10-22T03:40:41;13.80;99.90
8226;DHT22;4154;48.810;9.012;2022-10-22T03:43:09;13.80;99.90
8226;DHT22;4154;48.810;9.012;2022-10-22T03:45:35;13.80;99.90
8226;DHT22;4154;48.810;9.012;2022-10-22T03:48:01;13.80;99.90
8226;DHT22;4154;48.810;9.012;2022-10-22T03:50:27;13.90;99.90
8226;DHT22;4154;48.810;9.012;2022-10-22T03:52:53;13.80;99.90
8226;DHT22;4154;48.810;9.012;2022-10-22T03:55:20;13.80;99.90
8226;DHT22;4154;48.810;9.012;2022-10-22T03:57:46;13.80;99.90
8226;DHT22;4154;48.810;9.012;2022-10-22T04:00:11;13.80;99.90
8226;DHT22;4154;48.810;9.012;2022-10-22T04:02:37;13.80;99.90
8226;DHT22;4154;48.810;9.012;2022-10-22T04:05:03;13.80;99.90
8226;DHT22;4154;48.810;9.012;2022-10-22T04:07:29;13.80;99.90
8226;DHT22;4154;48.810;9.012;2022-10-22T04:09:55;13.80;99.90
8226;DHT22;4154;48.810;9.012;2022-10-22T04:12:21;13.80;99.90
8226;DHT22;4154;48.810;9.012;2022-10-22T04:14:47;13.80;99.90
8226;DHT22;4154;48.810;9.012;2022-10-22T04:17:13;13.80;99.90
8226;DHT22;4154;48.810;9.012;2022-10-22T04:19:39;13.80;99.90
8226;DHT22;4154;48.810;9.012;2022-10-22T04:22:05;13.80;99.90
8226;DHT22;4154;48.810;9.012;2022-10-22T04:26:57;13.70;99.90
8226;DHT22;4154;48.810;9.012;2022-10-22T04:29:24;13.80;99.90
8226;DHT22;4154;48.810;9.012;2022-10-22T04:31:50;13.80;99.90
8226;DHT22;4154;48.810;9.012;2022-10-22T04:34:22;13.70;99.90
8226;DHT22;4154;48.810;9.012;2022-10-22T04:36:47;13.70;99.90
8226;DHT22;4154;48.810;9.012;2022-10-22T04:41:40;13.70;99.90
8226;DHT22;4154;48.810;9.012;2022-10-22T04:44:10;13.70;99.90
8226;DHT22;4154;48.810;9.012;2022-10-22T04:46:36;13.70;99.90
8226;DHT22;4154;48.810;9.012;2022-10-22T04:49:02;13.70;99.90
8226;DHT22;4154;48.810;9.012;2022-10-22T04:51:29;13.70;99.90
8226;DHT22;4154;48.810;9.012;2022-10-22T04:53:55;13.40;99.90
8226;DHT22;4154;48.810;9.012;2022-10-22T04:56:23;13.70;99.90
8226;DHT22;4154;48.810;9.012;2022-10-22T04:58:58;13.70;99.90
8226;DHT22;4154;48.810;9.012;2022-10-22T05:01:30;13.70;99.90
8226;DHT22;4154;48.810;9.012;2022-10-22T05:04:02;13.70;99.90
8226;DHT22;4154;48.810;9.012;2022-10-22T05:06:30;13.70;99.90
8226;DHT22;4154;48.810;9.012;2022-10-22T05:09:04;13.70;99.90
8226;DHT22;4154;48.810;9.012;2022-10-22T05:11:36;12.80;99.90
8226;DHT22;4154;48.810;9.012;2022-10-22T05:14:04;13.70;99.90
8226;DHT22;4154;48.810;9.012;2022-10-22T05:16:32;13.70;99.90
8226;DHT22;4154;48.810;9.012;2022-10-22T05:19:00;13.70;99.90
8226;DHT22;4154;48.810;9.012;2022-10-22T05:21:27;13.70;99.90
8226;DHT22;4154;48.810;9.012;2022-10-22T05:23:54;13.60;99.90
8226;DHT22;4154;48.810;9.012;2022-10-22T05:26:21;13.70;99.90
8226;DHT22;4154;48.810;9.012;2022-10-22T05:28:50;13.70;99.90
8226;DHT22;4154;48.810;9.012;2022-10-22T05:31:17;13.70;99.90
8226;DHT22;4154;48.810;9.012;2022-10-22T05:33:50;13.40;99.90
8226;DHT22;4154;48.810;9.012;2022-10-22T05:36:18;13.70;99.90
8226;DHT22;4154;48.810;9.012;2022-10-22T05:38:48;13.70;99.90
8226;DHT22;4154;48.810;9.012;2022-10-22T05:41:17;13.70;99.90
8226;DHT22;4154;48.810;9.012;2022-10-22T05:43:45;13.40;99.90
8226;DHT22;4154;48.810;9.012;2022-10-22T05:46:14;13.70;99.90
8226;DHT22;4154;48.810;9.012;2022-10-22T05:48:41;13.70;99.90
8226;DHT22;4154;48.810;9.012;2022-10-22T05:51:10;13.70;99.90
8226;DHT22;4154;48.810;9.012;2022-10-22T05:53:39;13.70;99.90
8226;DHT22;4154;48.810;9.012;2022-10-22T05:56:10;13.60;99.90
8226;DHT22;4154;48.810;9.012;2022-10-22T05:58:37;13.60;99.90
8226;DHT22;4154;48.810;9.012;2022-10-22T06:01:10;13.60;99.90
8226;DHT22;4154;48.810;9.012;2022-10-22T06:03:47;13.60;99.90
8226;DHT22;4154;48.810;9.012;2022-10-22T06:06:33;13.60;99.90
8226;DHT22;4154;48.810;9.012;2022-10-22T06:11:42;13.60;99.90
8226;DHT22;4154;48.810;9.012;2022-10-22T06:14:08;13.60;99.90
8226;DHT22;4154;48.810;9.012;2022-10-22T06:16:35;13.60;99.90
8226;DHT22;4154;48.810;9.012;2022-10-22T06:19:01;13.60;99.90
8226;DHT22;4154;48.810;9.012;2022-10-22T06:21:27;13.60;99.90
8226;DHT22;4154;48.810;9.012;2022-10-22T06:24:00;13.40;99.90
8226;DHT22;4154;48.810;9.012;2022-10-22T06:26:27;13.60;99.90
8226;DHT22;4154;48.810;9.012;2022-10-22T06:28:54;13.60;99.90
8226;DHT22;4154;48.810;9.012;2022-10-22T06:31:21;13.70;99.90
8226;DHT22;4154;48.810;9.012;2022-10-22T06:34:11;13.90;99.90
8226;DHT22;4154;48.810;9.012;2022-10-22T06:36:39;13.60;99.90
8226;DHT22;4154;48.810;9.012;2022-10-22T06:39:11;13.60;99.90
8226;DHT22;4154;48.810;9.012;2022-10-22T06:41:39;13.60;99.90
8226;DHT22;4154;48.810;9.012;2022-10-22T06:44:05;13.60;99.90
8226;DHT22;4154;48.810;9.012;2022-10-22T06:46:31;13.90;99.90
8226;DHT22;4154;48.810;9.012;2022-10-22T06:49:01;13.60;99.90
8226;DHT22;4154;48.810;9.012;2022-10-22T06:51:27;13.60;99.90
8226;DHT22;4154;48.810;9.012;2022-10-22T06:53:57;13.70;99.90
8226;DHT22;4154;48.810;9.012;2022-10-22T06:56:25;13.70;99.90
8226;DHT22;4154;48.810;9.012;2022-10-22T06:58:54;13.70;99.90
8226;DHT22;4154;48.810;9.012;2022-10-22T07:01:30;13.70;99.90
8226;DHT22;4154;48.810;9.012;2022-10-22T07:03:58;13.70;99.90
8226;DHT22;4154;48.810;9.012;2022-10-22T07:06:26;13.70;99.90
8226;DHT22;4154;48.810;9.012;2022-10-22T07:08:54;13.70;99.90
8226;DHT22;4154;48.810;9.012;2022-10-22T07:11:26;13.80;99.90
8226;DHT22;4154;48.810;9.012;2022-10-22T07:14:03;13.80;99.90
8226;DHT22;4154;48.810;9.012;2022-10-22T07:18:55;13.90;99.90
8226;DHT22;4154;48.810;9.012;2022-10-22T07:21:21;13.90;99.90
8226;DHT22;4154;48.810;9.012;2022-10-22T07:23:49;13.60;99.90
8226;DHT22;4154;48.810;9.012;2022-10-22T07:26:16;13.90;99.90
8226;DHT22;4154;48.810;9.012;2022-10-22T07:28:42;13.90;99.90
8226;DHT22;4154;48.810;9.012;2022-10-22T07:31:10;13.90;99.90
8226;DHT22;4154;48.810;9.012;2022-10-22T07:33:38;14.00;99.90
8226;DHT22;4154;48.810;9.012;2022-10-22T07:36:07;14.00;99.90
8226;DHT22;4154;48.810;9.012;2022-10-22T07:38:35;14.00;99.90
8226;DHT22;4154;48.810;9.012;2022-10-22T07:41:01;14.00;99.90
8226;DHT22;4154;48.810;9.012;2022-10-22T07:43:28;14.10;99.90
8226;DHT22;4154;48.810;9.012;2022-10-22T07:45:54;14.10;99.90
8226;DHT22;4154;48.810;9.012;2022-10-22T07:48:20;14.20;99.90
8226;DHT22;4154;48.810;9.012;2022-10-22T07:50:51;14.20;99.90
8226;DHT22;4154;48.810;9.012;2022-10-22T07:53:17;14.20;99.90
8226;DHT22;4154;48.810;9.012;2022-10-22T07:55:43;14.30;99.90
8226;DHT22;4154;48.810;9.012;2022-10-22T07:58:13;14.30;99.90
8226;DHT22;4154;48.810;9.012;2022-10-22T08:00:39;14.30;99.90
8226;DHT22;4154;48.810;9.012;2022-10-22T08:03:05;14.30;99.90
8226;DHT22;4154;48.810;9.012;2022-10-22T08:05:30;14.30;99.90
8226;DHT22;4154;48.810;9.012;2022-10-22T08:07:57;14.30;99.90
8226;DHT22;4154;48.810;9.012;2022-10-22T08:10:23;14.40;99.90
8226;DHT22;4154;48.810;9.012;2022-10-22T08:12:49;14.40;99.90
8226;DHT22;4154;48.810;9.012;2022-10-22T08:15:15;14.40;99.90
8226;DHT22;4154;48.810;9.012;2022-10-22T08:17:40;14.40;99.90
8226;DHT22;4154;48.810;9.012;2022-10-22T08:20:07;14.40;99.90
8226;DHT22;4154;48.810;9.012;2022-10-22T08:22:33;14.40;99.90
8226;DHT22;4154;48.810;9.012;2022-10-22T08:24:58;14.50;99.90
8226;DHT22;4154;48.810;9.012;2022-10-22T08:27:24;14.50;99.90
8226;DHT22;4154;48.810;9.012;2022-10-22T08:29:50;14.50;99.90
8226;DHT22;4154;48.810;9.012;2022-10-22T08:32:16;14.50;99.90
8226;DHT22;4154;48.810;9.012;2022-10-22T08:34:42;14.50;99.90
8226;DHT22;4154;48.810;9.012;2022-10-22T08:37:13;14.60;99.90
8226;DHT22;4154;48.810;9.012;2022-10-22T08:39:43;14.60;99.90
8226;DHT22;4154;48.810;9.012;2022-10-22T08:45:35;14.60;99.90
8226;DHT22;4154;48.810;9.012;2022-10-22T08:51:14;14.70;99.90
8226;DHT22;4154;48.810;9.012;2022-10-22T09:00:35;14.70;99.90
8226;DHT22;4154;48.810;9.012;2022-10-22T09:06:26;14.80;99.90
8226;DHT22;4154;48.810;9.012;2022-10-22T09:12:10;14.90;99.90
8226;DHT22;4154;48.810;9.012;2022-10-22T09:14:41;15.00;99.90
8226;DHT22;4154;48.810;9.012;2022-10-22T09:25:50;15.50;99.90
8226;DHT22;4154;48.810;9.012;2022-10-22T09:28:21;15.20;99.90
8226;DHT22;4154;48.810;9.012;2022-10-22T09:30:47;15.30;99.90
8226;DHT22;4154;48.810;9.012;2022-10-22T09:33:16;15.40;99.90
8226;DHT22;4154;48.810;9.012;2022-10-22T09:35:55;15.40;99.90
8226;DHT22;4154;48.810;9.012;2022-10-22T09:39:12;15.40;99.90
8226;DHT22;4154;48.810;9.012;2022-10-22T09:42:25;15.60;99.90
8226;DHT22;4154;48.810;9.012;2022-10-22T09:45:03;14.60;99.90
8226;DHT22;4154;48.810;9.012;2022-10-22T09:48:21;15.70;99.90
8226;DHT22;4154;48.810;9.012;2022-10-22T09:51:14;15.70;99.90
8226;DHT22;4154;48.810;9.012;2022-10-22T09:54:37;15.80;99.90
8226;DHT22;4154;48.810;9.012;2022-10-22T09:57:21;14.60;99.90
8226;DHT22;4154;48.810;9.012;2022-10-22T09:59:57;15.80;99.90
8226;DHT22;4154;48.810;9.012;2022-10-22T10:02:30;15.80;99.90
8226;DHT22;4154;48.810;9.012;2022-10-22T10:05:03;15.90;99.90
8226;DHT22;4154;48.810;9.012;2022-10-22T10:07:43;15.90;99.90
8226;DHT22;4154;48.810;9.012;2022-10-22T10:10:29;16.00;99.90
8226;DHT22;4154;48.810;9.012;2022-10-22T10:16:33;16.00;99.90
8226;DHT22;4154;48.810;9.012;2022-10-22T10:28:22;16.30;99.90
8226;DHT22;4154;48.810;9.012;2022-10-22T10:33:57;16.30;99.90
8226;DHT22;4154;48.810;9.012;2022-10-22T10:36:44;16.50;99.90
8226;DHT22;4154;48.810;9.012;2022-10-22T10:39:33;16.60;99.90
8226;DHT22;4154;48.810;9.012;2022-10-22T10:42:32;16.60;99.90
8226;DHT22;4154;48.810;9.012;2022-10-22T10:56:56;16.90;99.90
8226;DHT22;4154;48.810;9.012;2022-10-22T11:08:58;16.70;99.90
8226;DHT22;4154;48.810;9.012;2022-10-22T11:12:27;16.70;99.90
8226;DHT22;4154;48.810;9.012;2022-10-22T11:15:25;16.60;99.90
8226;DHT22;4154;48.810;9.012;2022-10-22T11:18:15;16.60;99.90
8226;DHT22;4154;48.810;9.012;2022-10-22T11:21:23;16.60;99.90
8226;DHT22;4154;48.810;9.012;2022-10-22T11:24:25;16.60;99.90
8226;DHT22;4154;48.810;9.012;2022-10-22T11:29:51;16.60;99.90
8226;DHT22;4154;48.810;9.012;2022-10-22T11:32:25;16.80;99.90
8226;DHT22;4154;48.810;9.012;2022-10-22T11:34:55;16.70;99.90
8226;DHT22;4154;48.810;9.012;2022-10-22T11:37:29;16.70;99.90
8226;DHT22;4154;48.810;9.012;2022-10-22T11:40:13;16.70;99.90
8226;DHT22;4154;48.810;9.012;2022-10-22T11:42:52;16.70;99.90
8226;DHT22;4154;48.810;9.012;2022-10-22T11:50:46;16.70;99.90
8226;DHT22;4154;48.810;9.012;2022-10-22T11:53:30;16.70;99.90
8226;DHT22;4154;48.810;9.012;2022-10-22T11:58:39;16.70;99.90
8226;DHT22;4154;48.810;9.012;2022-10-22T12:03:51;16.80;99.90
8226;DHT22;4154;48.810;9.012;2022-10-22T12:06:24;16.90;99.90
8226;DHT22;4154;48.810;9.012;2022-10-22T12:08:57;17.00;99.90
8226;DHT22;4154;48.810;9.012;2022-10-22T12:11:37;17.10;99.90
8226;DHT22;4154;48.810;9.012;2022-10-22T12:17:15;17.30;99.90
8226;DHT22;4154;48.810;9.012;2022-10-22T12:22:54;17.50;99.90
8226;DHT22;4154;48.810;9.012;2022-10-22T12:25:25;17.60;99.90
8226;DHT22;4154;48.810;9.012;2022-10-22T12:27:58;17.60;99.90
8226;DHT22;4154;48.810;9.012;2022-10-22T12:30:33;17.70;99.90
8226;DHT22;4154;48.810;9.012;2022-10-22T12:33:01;17.80;99.90
8226;DHT22;4154;48.810;9.012;2022-10-22T12:35:32;17.90;99.90
8226;DHT22;4154;48.810;9.012;2022-10-22T12:38:15;17.90;99.90
8226;DHT22;4154;48.810;9.012;2022-10-22T12:40:45;17.90;99.90
8226;DHT22;4154;48.810;9.012;2022-10-22T12:43:17;17.90;99.90
8226;DHT22;4154;48.810;9.012;2022-10-22T12:45:49;17.90;99.90
8226;DHT22;4154;48.810;9.012;2022-10-22T12:48:44;18.10;99.90
8226;DHT22;4154;48.810;9.012;2022-10-22T12:51:19;17.60;99.90
8226;DHT22;4154;48.810;9.012;2022-10-22T12:54:17;18.00;99.90
8226;DHT22;4154;48.810;9.012;2022-10-22T12:56:58;18.00;99.90
8226;DHT22;4154;48.810;9.012;2022-10-22T13:02:00;18.00;99.90
8226;DHT22;4154;48.810;9.012;2022-10-22T13:04:34;18.00;99.90
8226;DHT22;4154;48.810;9.012;2022-10-22T13:09:58;17.90;99.90
8226;DHT22;4154;48.810;9.012;2022-10-22T13:12:35;17.90;99.90
8226;DHT22;4154;48.810;9.012;2022-10-22T13:15:36;18.00;99.90
8226;DHT22;4154;48.810;9.012;2022-10-22T13:20:55;17.80;99.90
8226;DHT22;4154;48.810;9.012;2022-10-22T13:23:31;17.90;99.90
8226;DHT22;4154;48.810;9.012;2022-10-22T13:26:16;18.00;99.90
8226;DHT22;4154;48.810;9.012;2022-10-22T13:28:53;18.10;99.90
8226;DHT22;4154;48.810;9.012;2022-10-22T13:31:24;18.00;99.90
8226;DHT22;4154;48.810;9.012;2022-10-22T13:34:11;17.60;99.90
8226;DHT22;4154;48.810;9.012;2022-10-22T13:36:41;18.10;99.90
8226;DHT22;4154;48.810;9.012;2022-10-22T13:39:16;18.10;99.90
8226;DHT22;4154;48.810;9.012;2022-10-22T13:44:20;18.00;99.90
8226;DHT22;4154;48.810;9.012;2022-10-22T13:46:51;17.90;99.90
8226;DHT22;4154;48.810;9.012;2022-10-22T13:49:19;18.60;99.90
8226;DHT22;4154;48.810;9.012;2022-10-22T13:54:21;19.30;99.90
8226;DHT22;4154;48.810;9.012;2022-10-22T13:56:48;17.90;99.90
8226;DHT22;4154;48.810;9.012;2022-10-22T13:59:14;17.90;99.90
8226;DHT22;4154;48.810;9.012;2022-10-22T14:04:11;17.90;99.90
8226;DHT22;4154;48.810;9.012;2022-10-22T14:06:39;17.90;99.90
8226;DHT22;4154;48.810;9.012;2022-10-22T14:09:09;17.90;99.90
8226;DHT22;4154;48.810;9.012;2022-10-22T14:11:37;17.90;99.90
8226;DHT22;4154;48.810;9.012;2022-10-22T14:14:03;17.90;99.90
8226;DHT22;4154;48.810;9.012;2022-10-22T14:16:33;18.00;99.90
8226;DHT22;4154;48.810;9.012;2022-10-22T14:19:00;18.00;99.90
8226;DHT22;4154;48.810;9.012;2022-10-22T14:21:35;18.00;99.90
8226;DHT22;4154;48.810;9.012;2022-10-22T14:24:02;18.00;99.90
8226;DHT22;4154;48.810;9.012;2022-10-22T14:26:30;17.90;99.90
8226;DHT22;4154;48.810;9.012;2022-10-22T14:28:59;17.90;99.90
8226;DHT22;4154;48.810;9.012;2022-10-22T14:31:25;17.90;99.90
8226;DHT22;4154;48.810;9.012;2022-10-22T14:33:51;17.90;99.90
8226;DHT22;4154;48.810;9.012;2022-10-22T14:38:45;17.90;99.90
8226;DHT22;4154;48.810;9.012;2022-10-22T14:41:23;17.90;99.90
8226;DHT22;4154;48.810;9.012;2022-10-22T14:43:51;17.80;99.90
8226;DHT22;4154;48.810;9.012;2022-10-22T14:46:18;17.80;99.90
8226;DHT22;4154;48.810;9.012;2022-10-22T14:48:44;17.60;99.90
8226;DHT22;4154;48.810;9.012;2022-10-22T14:51:13;17.80;99.90
8226;DHT22;4154;48.810;9.012;2022-10-22T14:53:41;17.70;99.90
8226;DHT22;4154;48.810;9.012;2022-10-22T14:56:11;17.60;99.90
8226;DHT22;4154;48.810;9.012;2022-10-22T14:58:39;17.50;99.90
8226;DHT22;4154;48.810;9.012;2022-10-22T15:01:06;17.70;99.90
8226;DHT22;4154;48.810;9.012;2022-10-22T15:03:33;17.60;99.90
8226;DHT22;4154;48.810;9.012;2022-10-22T15:05:59;17.60;99.90
8226;DHT22;4154;48.810;9.012;2022-10-22T15:08:25;17.60;99.90
8226;DHT22;4154;48.810;9.012;2022-10-22T15:11:06;17.50;99.90
8226;DHT22;4154;48.810;9.012;2022-10-22T15:13:35;17.50;99.90
8226;DHT22;4154;48.810;9.012;2022-10-22T15:16:05;17.50;99.90
8226;DHT22;4154;48.810;9.012;2022-10-22T15:18:32;17.50;99.90
8226;DHT22;4154;48.810;9.012;2022-10-22T15:21:04;17.40;99.90
8226;DHT22;4154;48.810;9.012;2022-10-22T15:23:32;17.40;99.90
8226;DHT22;4154;48.810;9.012;2022-10-22T15:28:24;17.40;99.90
8226;DHT22;4154;48.810;9.012;2022-10-22T15:30:58;17.40;99.90
8226;DHT22;4154;48.810;9.012;2022-10-22T15:33:26;17.40;99.90
8226;DHT22;4154;48.810;9.012;2022-10-22T15:35:53;17.40;99.90
8226;DHT22;4154;48.810;9.012;2022-10-22T15:38:20;17.30;99.90
8226;DHT22;4154;48.810;9.012;2022-10-22T15:40:46;17.30;99.90
8226;DHT22;4154;48.810;9.012;2022-10-22T15:43:12;17.30;99.90
8226;DHT22;4154;48.810;9.012;2022-10-22T15:45:38;17.30;99.90
8226;DHT22;4154;48.810;9.012;2022-10-22T15:48:05;17.30;99.90
8226;DHT22;4154;48.810;9.012;2022-10-22T15:50:31;17.30;99.90
8226;DHT22;4154;48.810;9.012;2022-10-22T15:53:01;17.20;99.90
8226;DHT22;4154;48.810;9.012;2022-10-22T15:55:27;17.20;99.90
8226;DHT22;4154;48.810;9.012;2022-10-22T15:57:53;17.10;99.90
8226;DHT22;4154;48.810;9.012;2022-10-22T16:00:21;17.10;99.90
8226;DHT22;4154;48.810;9.012;2022-10-22T16:02:47;17.10;99.90
8226;DHT22;4154;48.810;9.012;2022-10-22T16:07:39;17.00;99.90
8226;DHT22;4154;48.810;9.012;2022-10-22T16:10:05;17.00;99.90
8226;DHT22;4154;48.810;9.012;2022-10-22T16:12:32;17.00;99.90
8226;DHT22;4154;48.810;9.012;2022-10-22T16:15:00;16.90;99.90
8226;DHT22;4154;48.810;9.012;2022-10-22T16:17:26;16.90;99.90
8226;DHT22;4154;48.810;9.012;2022-10-22T16:19:52;16.80;99.90
8226;DHT22;4154;48.810;9.012;2022-10-22T16:22:17;16.80;99.90
8226;DHT22;4154;48.810;9.012;2022-10-22T16:24:43;16.70;99.90
8226;DHT22;4154;48.810;9.012;2022-10-22T16:27:09;16.70;99.90
8226;DHT22;4154;48.810;9.012;2022-10-22T16:29:38;16.60;99.90
8226;DHT22;4154;48.810;9.012;2022-10-22T16:32:05;16.60;99.90
8226;DHT22;4154;48.810;9.012;2022-10-22T16:34:31;16.60;99.90
8226;DHT22;4154;48.810;9.012;2022-10-22T16:36:56;16.50;99.90
8226;DHT22;4154;48.810;9.012;2022-10-22T16:39:24;16.50;99.90
8226;DHT22;4154;48.810;9.012;2022-10-22T16:41:50;16.40;99.90
8226;DHT22;4154;48.810;9.012;2022-10-22T16:44:16;16.40;99.90
8226;DHT22;4154;48.810;9.012;2022-10-22T16:46:44;16.30;99.90
8226;DHT22;4154;48.810;9.012;2022-10-22T16:54:09;16.20;99.90
8226;DHT22;4154;48.810;9.012;2022-10-22T16:56:42;16.10;99.90
8226;DHT22;4154;48.810;9.012;2022-10-22T16:59:08;15.70;99.90
8226;DHT22;4154;48.810;9.012;2022-10-22T17:04:14;16.00;99.90
8226;DHT22;4154;48.810;9.012;2022-10-22T17:09:37;15.80;99.90
8226;DHT22;4154;48.810;9.012;2022-10-22T17:17:24;15.70;99.90
8226;DHT22;4154;48.810;9.012;2022-10-22T17:23:38;15.60;99.90
8226;DHT22;4154;48.810;9.012;2022-10-22T17:26:14;15.60;99.90
8226;DHT22;4154;48.810;9.012;2022-10-22T17:31:22;15.50;99.90
8226;DHT22;4154;48.810;9.012;2022-10-22T17:37:03;15.40;99.90
8226;DHT22;4154;48.810;9.012;2022-10-22T17:39:34;15.40;99.90
8226;DHT22;4154;48.810;9.012;2022-10-22T17:42:00;15.40;99.90
8226;DHT22;4154;48.810;9.012;2022-10-22T17:44:32;15.30;99.90
8226;DHT22;4154;48.810;9.012;2022-10-22T17:47:04;15.30;99.90
8226;DHT22;4154;48.810;9.012;2022-10-22T17:52:04;15.20;99.90
8226;DHT22;4154;48.810;9.012;2022-10-22T17:54:35;15.20;99.90
8226;DHT22;4154;48.810;9.012;2022-10-22T17:57:14;15.10;99.90
8226;DHT22;4154;48.810;9.012;2022-10-22T18:02:17;15.00;99.90
8226;DHT22;4154;48.810;9.012;2022-10-22T18:04:49;15.00;99.90
8226;DHT22;4154;48.810;9.012;2022-10-22T18:07:21;15.00;99.90
8226;DHT22;4154;48.810;9.012;2022-10-22T18:14:42;14.90;99.90
8226;DHT22;4154;48.810;9.012;2022-10-22T18:19:41;14.70;99.90
8226;DHT22;4154;48.810;9.012;2022-10-22T18:22:07;14.70;99.90
8226;DHT22;4154;48.810;9.012;2022-10-22T18:24:34;14.70;99.90
8226;DHT22;4154;48.810;9.012;2022-10-22T18:27:03;14.70;99.90
8226;DHT22;4154;48.810;9.012;2022-10-22T18:29:29;14.60;99.90
8226;DHT22;4154;48.810;9.012;2022-10-22T18:31:58;14.60;99.90
8226;DHT22;4154;48.810;9.012;2022-10-22T18:34:24;14.60;99.90
8226;DHT22;4154;48.810;9.012;2022-10-22T18:36:50;14.60;99.90
8226;DHT22;4154;48.810;9.012;2022-10-22T18:39:16;14.50;99.90
8226;DHT22;4154;48.810;9.012;2022-10-22T18:41:42;14.50;99.90
8226;DHT22;4154;48.810;9.012;2022-10-22T18:44:14;14.50;99.90
8226;DHT22;4154;48.810;9.012;2022-10-22T18:46:40;14.40;99.90
8226;DHT22;4154;48.810;9.012;2022-10-22T18:49:13;14.40;99.90
8226;DHT22;4154;48.810;9.012;2022-10-22T18:51:43;14.30;99.90
8226;DHT22;4154;48.810;9.012;2022-10-22T18:59:27;14.40;99.90
8226;DHT22;4154;48.810;9.012;2022-10-22T19:02:08;14.30;99.90
8226;DHT22;4154;48.810;9.012;2022-10-22T19:04:53;14.30;99.90
8226;DHT22;4154;48.810;9.012;2022-10-22T19:08:08;14.30;99.90
8226;DHT22;4154;48.810;9.012;2022-10-22T19:10:47;14.20;99.90
8226;DHT22;4154;48.810;9.012;2022-10-22T19:13:24;14.20;99.90
8226;DHT22;4154;48.810;9.012;2022-10-22T19:16:15;14.20;99.90
8226;DHT22;4154;48.810;9.012;2022-10-22T19:19:16;14.10;99.90
8226;DHT22;4154;48.810;9.012;2022-10-22T19:22:01;14.10;99.90
8226;DHT22;4154;48.810;9.012;2022-10-22T19:24:29;14.00;99.90
8226;DHT22;4154;48.810;9.012;2022-10-22T19:34:18;14.00;99.90
8226;DHT22;4154;48.810;9.012;2022-10-22T19:39:15;13.80;99.90
8226;DHT22;4154;48.810;9.012;2022-10-22T19:44:24;13.70;99.90
8226;DHT22;4154;48.810;9.012;2022-10-22T19:46:54;13.80;99.90